sensor_id;sensor_type;location;lat;lon;timestamp;P1;durP1;ratioP1;P2;durP2;ratioP2
21266;SDS011;10791;53.108;18.326;2022-11-14T00:04:17;24.40;;;13.27;;
21266;SDS011;10791;53.108;18.326;2022-11-14T00:09:23;22.77;;;10.73;;
21266;SDS011;10791;53.108;18.326;2022-11-14T00:14:27;20.90;;;10.90;;
21266;SDS011;10791;53.108;18.326;2022-11-14T00:19:31;20.13;;;11.57;;
21266;SDS011;10791;53.108;18.326;2022-11-14T00:24:35;21.73;;;11.27;;
21266;SDS011;10791;53.108;18.326;2022-11-14T00:29:38;19.97;;;10.50;;
21266;SDS011;10791;53.108;18.326;2022-11-14T00:34:41;19.37;;;9.97;;
21266;SDS011;10791;53.108;18.326;2022-11-14T00:39:45;22.00;;;11.57;;
21266;SDS011;10791;53.108;18.326;2022-11-14T00:44:48;21.87;;;11.00;;
21266;SDS011;10791;53.108;18.326;2022-11-14T00:49:54;24.33;;;11.27;;
21266;SDS011;10791;53.108;18.326;2022-11-14T00:54:57;20.70;;;9.90;;
21266;SDS011;10791;53.108;18.326;2022-11-14T01:00:00;21.57;;;11.10;;
21266;SDS011;10791;53.108;18.326;2022-11-14T01:05:03;21.90;;;10.60;;
21266;SDS011;10791;53.108;18.326;2022-11-14T01:10:07;21.97;;;11.70;;
21266;SDS011;10791;53.108;18.326;2022-11-14T01:15:11;23.50;;;10.43;;
21266;SDS011;10791;53.108;18.326;2022-11-14T01:20:15;24.53;;;11.83;;
21266;SDS011;10791;53.108;18.326;2022-11-14T01:25:19;27.07;;;12.63;;
21266;SDS011;10791;53.108;18.326;2022-11-14T01:30:22;25.13;;;12.07;;
21266;SDS011;10791;53.108;18.326;2022-11-14T01:35:26;22.43;;;13.37;;
21266;SDS011;10791;53.108;18.326;2022-11-14T01:40:29;24.63;;;12.00;;
21266;SDS011;10791;53.108;18.326;2022-11-14T01:45:53;26.07;;;12.70;;
21266;SDS011;10791;53.108;18.326;2022-11-14T01:51:36;28.33;;;13.30;;
21266;SDS011;10791;53.108;18.326;2022-11-14T01:57:02;27.27;;;13.77;;
21266;SDS011;10791;53.108;18.326;2022-11-14T02:02:17;27.17;;;14.03;;
21266;SDS011;10791;53.108;18.326;2022-11-14T02:07:23;26.77;;;13.53;;
21266;SDS011;10791;53.108;18.326;2022-11-14T02:12:29;28.47;;;14.50;;
21266;SDS011;10791;53.108;18.326;2022-11-14T02:17:33;28.07;;;13.63;;
21266;SDS011;10791;53.108;18.326;2022-11-14T02:22:37;29.93;;;14.23;;
21266;SDS011;10791;53.108;18.326;2022-11-14T02:27:42;30.00;;;14.50;;
21266;SDS011;10791;53.108;18.326;2022-11-14T02:32:46;27.70;;;13.67;;
21266;SDS011;10791;53.108;18.326;2022-11-14T02:38:09;27.43;;;13.63;;
21266;SDS011;10791;53.108;18.326;2022-11-14T02:43:13;24.53;;;12.23;;
21266;SDS011;10791;53.108;18.326;2022-11-14T02:48:16;21.57;;;11.77;;
21266;SDS011;10791;53.108;18.326;2022-11-14T02:53:20;22.47;;;10.70;;
21266;SDS011;10791;53.108;18.326;2022-11-14T02:58:23;20.07;;;10.27;;
21266;SDS011;10791;53.108;18.326;2022-11-14T03:03:27;19.93;;;9.40;;
21266;SDS011;10791;53.108;18.326;2022-11-14T03:08:30;17.07;;;9.00;;
21266;SDS011;10791;53.108;18.326;2022-11-14T03:13:33;17.83;;;9.43;;
21266;SDS011;10791;53.108;18.326;2022-11-14T03:18:37;14.17;;;8.03;;
21266;SDS011;10791;53.108;18.326;2022-11-14T03:23:40;19.07;;;9.73;;
21266;SDS011;10791;53.108;18.326;2022-11-14T03:28:44;18.30;;;10.67;;
21266;SDS011;10791;53.108;18.326;2022-11-14T03:33:48;19.80;;;9.87;;
21266;SDS011;10791;53.108;18.326;2022-11-14T03:38:51;18.93;;;10.07;;
21266;SDS011;10791;53.108;18.326;2022-11-14T03:43:55;19.93;;;10.67;;
21266;SDS011;10791;53.108;18.326;2022-11-14T03:48:58;23.30;;;9.90;;
21266;SDS011;10791;53.108;18.326;2022-11-14T03:54:01;24.77;;;12.53;;
21266;SDS011;10791;53.108;18.326;2022-11-14T03:59:05;23.07;;;12.13;;
21266;SDS011;10791;53.108;18.326;2022-11-14T04:04:10;21.77;;;12.47;;
21266;SDS011;10791;53.108;18.326;2022-11-14T04:09:14;24.83;;;13.37;;
21266;SDS011;10791;53.108;18.326;2022-11-14T04:14:17;26.10;;;13.27;;
21266;SDS011;10791;53.108;18.326;2022-11-14T04:19:21;27.33;;;13.77;;
21266;SDS011;10791;53.108;18.326;2022-11-14T04:24:24;26.33;;;13.03;;
21266;SDS011;10791;53.108;18.326;2022-11-14T04:29:28;28.30;;;13.93;;
21266;SDS011;10791;53.108;18.326;2022-11-14T04:34:31;32.60;;;15.40;;
21266;SDS011;10791;53.108;18.326;2022-11-14T04:39:35;31.73;;;15.60;;
21266;SDS011;10791;53.108;18.326;2022-11-14T04:44:38;30.10;;;15.10;;
21266;SDS011;10791;53.108;18.326;2022-11-14T04:49:42;26.70;;;14.20;;
21266;SDS011;10791;53.108;18.326;2022-11-14T04:54:46;28.50;;;15.17;;
21266;SDS011;10791;53.108;18.326;2022-11-14T04:59:49;24.43;;;14.30;;
21266;SDS011;10791;53.108;18.326;2022-11-14T05:05:06;28.17;;;15.93;;
21266;SDS011;10791;53.108;18.326;2022-11-14T05:10:10;28.00;;;15.47;;
21266;SDS011;10791;53.108;18.326;2022-11-14T05:15:13;30.60;;;16.93;;
21266;SDS011;10791;53.108;18.326;2022-11-14T05:20:17;33.27;;;16.73;;
21266;SDS011;10791;53.108;18.326;2022-11-14T05:25:21;36.30;;;18.53;;
21266;SDS011;10791;53.108;18.326;2022-11-14T05:30:24;38.47;;;19.23;;
21266;SDS011;10791;53.108;18.326;2022-11-14T05:35:28;39.07;;;20.10;;
21266;SDS011;10791;53.108;18.326;2022-11-14T05:40:31;40.67;;;20.33;;
21266;SDS011;10791;53.108;18.326;2022-11-14T05:45:35;40.83;;;19.53;;
21266;SDS011;10791;53.108;18.326;2022-11-14T05:50:38;37.70;;;18.70;;
21266;SDS011;10791;53.108;18.326;2022-11-14T05:55:41;42.47;;;20.90;;
21266;SDS011;10791;53.108;18.326;2022-11-14T06:00:45;39.67;;;19.90;;
21266;SDS011;10791;53.108;18.326;2022-11-14T06:05:55;37.67;;;18.63;;
21266;SDS011;10791;53.108;18.326;2022-11-14T06:11:06;35.23;;;17.23;;
21266;SDS011;10791;53.108;18.326;2022-11-14T06:16:18;34.53;;;18.57;;
21266;SDS011;10791;53.108;18.326;2022-11-14T06:21:22;34.90;;;18.73;;
21266;SDS011;10791;53.108;18.326;2022-11-14T06:26:28;39.80;;;19.70;;
21266;SDS011;10791;53.108;18.326;2022-11-14T06:31:33;39.27;;;21.67;;
21266;SDS011;10791;53.108;18.326;2022-11-14T06:36:36;39.23;;;21.33;;
21266;SDS011;10791;53.108;18.326;2022-11-14T06:41:40;37.13;;;20.83;;
21266;SDS011;10791;53.108;18.326;2022-11-14T06:46:43;41.03;;;20.90;;
21266;SDS011;10791;53.108;18.326;2022-11-14T06:51:47;36.90;;;21.07;;
21266;SDS011;10791;53.108;18.326;2022-11-14T06:56:50;39.17;;;21.77;;
21266;SDS011;10791;53.108;18.326;2022-11-14T07:01:54;34.57;;;19.03;;
21266;SDS011;10791;53.108;18.326;2022-11-14T07:06:58;36.63;;;18.27;;
21266;SDS011;10791;53.108;18.326;2022-11-14T07:12:01;36.13;;;17.53;;
21266;SDS011;10791;53.108;18.326;2022-11-14T07:17:05;33.93;;;19.43;;
21266;SDS011;10791;53.108;18.326;2022-11-14T07:22:08;38.37;;;20.60;;
21266;SDS011;10791;53.108;18.326;2022-11-14T07:27:12;35.63;;;19.07;;
21266;SDS011;10791;53.108;18.326;2022-11-14T07:32:15;37.10;;;19.07;;
21266;SDS011;10791;53.108;18.326;2022-11-14T07:37:19;42.40;;;21.17;;
21266;SDS011;10791;53.108;18.326;2022-11-14T07:42:26;40.10;;;21.03;;
21266;SDS011;10791;53.108;18.326;2022-11-14T07:47:31;35.20;;;19.87;;
21266;SDS011;10791;53.108;18.326;2022-11-14T07:52:34;40.40;;;20.90;;
21266;SDS011;10791;53.108;18.326;2022-11-14T07:57:38;39.03;;;21.80;;
21266;SDS011;10791;53.108;18.326;2022-11-14T08:02:49;38.53;;;21.93;;
21266;SDS011;10791;53.108;18.326;2022-11-14T08:07:52;38.10;;;19.97;;
21266;SDS011;10791;53.108;18.326;2022-11-14T08:13:00;37.00;;;20.00;;
21266;SDS011;10791;53.108;18.326;2022-11-14T08:18:25;44.50;;;22.13;;
21266;SDS011;10791;53.108;18.326;2022-11-14T08:23:29;38.03;;;20.17;;
21266;SDS011;10791;53.108;18.326;2022-11-14T08:28:32;52.07;;;23.90;;
21266;SDS011;10791;53.108;18.326;2022-11-14T08:33:36;40.07;;;20.80;;
21266;SDS011;10791;53.108;18.326;2022-11-14T08:38:40;44.13;;;22.23;;
21266;SDS011;10791;53.108;18.326;2022-11-14T08:43:44;49.60;;;24.60;;
21266;SDS011;10791;53.108;18.326;2022-11-14T08:48:47;43.83;;;23.17;;
21266;SDS011;10791;53.108;18.326;2022-11-14T08:53:52;42.93;;;21.73;;
21266;SDS011;10791;53.108;18.326;2022-11-14T08:58:56;45.27;;;22.53;;
21266;SDS011;10791;53.108;18.326;2022-11-14T09:04:00;44.23;;;22.57;;
21266;SDS011;10791;53.108;18.326;2022-11-14T09:09:04;41.77;;;20.33;;
21266;SDS011;10791;53.108;18.326;2022-11-14T09:14:07;42.87;;;22.50;;
21266;SDS011;10791;53.108;18.326;2022-11-14T09:19:11;44.63;;;22.33;;
21266;SDS011;10791;53.108;18.326;2022-11-14T09:24:15;48.70;;;22.30;;
21266;SDS011;10791;53.108;18.326;2022-11-14T09:29:19;44.53;;;22.30;;
21266;SDS011;10791;53.108;18.326;2022-11-14T09:34:23;42.70;;;22.37;;
21266;SDS011;10791;53.108;18.326;2022-11-14T09:39:27;43.33;;;20.40;;
21266;SDS011;10791;53.108;18.326;2022-11-14T09:49:44;44.23;;;21.70;;
21266;SDS011;10791;53.108;18.326;2022-11-14T09:54:57;43.87;;;21.33;;
21266;SDS011;10791;53.108;18.326;2022-11-14T10:00:15;45.07;;;22.77;;
21266;SDS011;10791;53.108;18.326;2022-11-14T10:26:59;44.70;;;23.20;;
21266;SDS011;10791;53.108;18.326;2022-11-14T10:38:02;49.83;;;24.07;;
21266;SDS011;10791;53.108;18.326;2022-11-14T10:43:22;49.67;;;24.70;;
21266;SDS011;10791;53.108;18.326;2022-11-14T10:48:30;52.97;;;24.23;;
21266;SDS011;10791;53.108;18.326;2022-11-14T10:53:42;46.90;;;24.43;;
21266;SDS011;10791;53.108;18.326;2022-11-14T10:58:53;50.17;;;24.03;;
21266;SDS011;10791;53.108;18.326;2022-11-14T11:03:57;48.90;;;24.30;;
21266;SDS011;10791;53.108;18.326;2022-11-14T11:09:18;49.37;;;24.30;;
21266;SDS011;10791;53.108;18.326;2022-11-14T11:15:37;52.97;;;24.83;;
21266;SDS011;10791;53.108;18.326;2022-11-14T11:25:38;51.27;;;24.50;;
21266;SDS011;10791;53.108;18.326;2022-11-14T11:31:16;44.70;;;23.23;;
21266;SDS011;10791;53.108;18.326;2022-11-14T11:36:19;51.40;;;25.03;;
21266;SDS011;10791;53.108;18.326;2022-11-14T11:46:56;54.07;;;27.73;;
21266;SDS011;10791;53.108;18.326;2022-11-14T11:57:39;50.77;;;22.90;;
21266;SDS011;10791;53.108;18.326;2022-11-14T12:02:50;51.27;;;25.10;;
21266;SDS011;10791;53.108;18.326;2022-11-14T12:08:02;49.37;;;24.87;;
21266;SDS011;10791;53.108;18.326;2022-11-14T12:24:21;51.77;;;28.13;;
21266;SDS011;10791;53.108;18.326;2022-11-14T12:34:52;56.83;;;28.47;;
21266;SDS011;10791;53.108;18.326;2022-11-14T12:39:56;51.90;;;26.43;;
21266;SDS011;10791;53.108;18.326;2022-11-14T12:45:16;51.10;;;27.13;;
21266;SDS011;10791;53.108;18.326;2022-11-14T12:50:42;51.73;;;24.77;;
21266;SDS011;10791;53.108;18.326;2022-11-14T13:05:54;46.80;;;25.93;;
21266;SDS011;10791;53.108;18.326;2022-11-14T13:16:52;50.60;;;27.63;;
21266;SDS011;10791;53.108;18.326;2022-11-14T13:22:49;53.23;;;27.40;;
21266;SDS011;10791;53.108;18.326;2022-11-14T13:27:53;51.37;;;28.27;;
21266;SDS011;10791;53.108;18.326;2022-11-14T13:39:01;46.10;;;25.73;;
21266;SDS011;10791;53.108;18.326;2022-11-14T13:54:55;40.40;;;24.67;;
21266;SDS011;10791;53.108;18.326;2022-11-14T14:16:11;47.03;;;25.83;;
21266;SDS011;10791;53.108;18.326;2022-11-14T14:32:27;39.53;;;24.13;;
21266;SDS011;10791;53.108;18.326;2022-11-14T14:37:31;39.10;;;23.70;;
21266;SDS011;10791;53.108;18.326;2022-11-14T14:42:38;43.80;;;25.23;;
21266;SDS011;10791;53.108;18.326;2022-11-14T14:48:20;40.00;;;23.87;;
21266;SDS011;10791;53.108;18.326;2022-11-14T14:53:21;42.13;;;24.93;;
21266;SDS011;10791;53.108;18.326;2022-11-14T14:58:31;38.70;;;24.50;;
21266;SDS011;10791;53.108;18.326;2022-11-14T15:03:41;40.93;;;23.07;;
21266;SDS011;10791;53.108;18.326;2022-11-14T15:08:48;39.13;;;23.70;;
21266;SDS011;10791;53.108;18.326;2022-11-14T15:13:53;44.27;;;24.70;;
21266;SDS011;10791;53.108;18.326;2022-11-14T15:18:58;42.93;;;23.83;;
21266;SDS011;10791;53.108;18.326;2022-11-14T15:24:14;49.70;;;26.60;;
21266;SDS011;10791;53.108;18.326;2022-11-14T15:29:21;48.73;;;28.27;;
21266;SDS011;10791;53.108;18.326;2022-11-14T15:34:32;43.23;;;26.00;;
21266;SDS011;10791;53.108;18.326;2022-11-14T15:39:38;50.50;;;26.47;;
21266;SDS011;10791;53.108;18.326;2022-11-14T15:44:42;45.60;;;26.77;;
21266;SDS011;10791;53.108;18.326;2022-11-14T15:49:56;42.50;;;23.27;;
21266;SDS011;10791;53.108;18.326;2022-11-14T15:55:18;46.47;;;27.60;;
21266;SDS011;10791;53.108;18.326;2022-11-14T16:00:23;44.07;;;28.20;;
21266;SDS011;10791;53.108;18.326;2022-11-14T16:05:27;48.13;;;29.63;;
21266;SDS011;10791;53.108;18.326;2022-11-14T16:10:32;41.43;;;22.80;;
21266;SDS011;10791;53.108;18.326;2022-11-14T16:15:36;44.10;;;26.83;;
21266;SDS011;10791;53.108;18.326;2022-11-14T16:20:39;43.70;;;25.77;;
21266;SDS011;10791;53.108;18.326;2022-11-14T16:25:43;42.73;;;24.47;;
21266;SDS011;10791;53.108;18.326;2022-11-14T16:30:46;40.47;;;24.60;;
21266;SDS011;10791;53.108;18.326;2022-11-14T16:35:50;42.13;;;25.07;;
21266;SDS011;10791;53.108;18.326;2022-11-14T16:40:54;37.83;;;22.43;;
21266;SDS011;10791;53.108;18.326;2022-11-14T16:46:01;37.50;;;21.90;;
21266;SDS011;10791;53.108;18.326;2022-11-14T16:51:08;40.13;;;25.13;;
21266;SDS011;10791;53.108;18.326;2022-11-14T16:56:32;44.97;;;25.87;;
21266;SDS011;10791;53.108;18.326;2022-11-14T17:01:36;46.23;;;27.00;;
21266;SDS011;10791;53.108;18.326;2022-11-14T17:06:40;46.27;;;25.83;;
21266;SDS011;10791;53.108;18.326;2022-11-14T17:11:45;40.43;;;24.70;;
21266;SDS011;10791;53.108;18.326;2022-11-14T17:16:49;43.67;;;25.47;;
21266;SDS011;10791;53.108;18.326;2022-11-14T17:21:54;47.50;;;27.60;;
21266;SDS011;10791;53.108;18.326;2022-11-14T17:26:58;44.30;;;26.47;;
21266;SDS011;10791;53.108;18.326;2022-11-14T17:32:02;41.90;;;24.97;;
21266;SDS011;10791;53.108;18.326;2022-11-14T17:37:08;44.17;;;26.47;;
21266;SDS011;10791;53.108;18.326;2022-11-14T17:42:12;47.67;;;26.80;;
21266;SDS011;10791;53.108;18.326;2022-11-14T17:47:17;49.07;;;28.87;;
21266;SDS011;10791;53.108;18.326;2022-11-14T17:52:24;52.97;;;27.93;;
21266;SDS011;10791;53.108;18.326;2022-11-14T17:57:28;53.10;;;29.00;;
21266;SDS011;10791;53.108;18.326;2022-11-14T18:02:34;61.47;;;31.13;;
21266;SDS011;10791;53.108;18.326;2022-11-14T18:07:37;54.70;;;29.97;;
21266;SDS011;10791;53.108;18.326;2022-11-14T18:12:44;57.07;;;28.63;;
21266;SDS011;10791;53.108;18.326;2022-11-14T18:17:47;59.57;;;29.83;;
21266;SDS011;10791;53.108;18.326;2022-11-14T18:22:52;58.50;;;32.13;;
21266;SDS011;10791;53.108;18.326;2022-11-14T18:27:56;66.10;;;33.33;;
21266;SDS011;10791;53.108;18.326;2022-11-14T18:33:00;62.30;;;32.07;;
21266;SDS011;10791;53.108;18.326;2022-11-14T18:38:04;68.20;;;33.73;;
21266;SDS011;10791;53.108;18.326;2022-11-14T18:43:12;68.53;;;33.33;;
21266;SDS011;10791;53.108;18.326;2022-11-14T18:48:21;64.93;;;33.10;;
21266;SDS011;10791;53.108;18.326;2022-11-14T18:53:34;70.03;;;33.03;;
21266;SDS011;10791;53.108;18.326;2022-11-14T18:58:39;68.37;;;34.27;;
21266;SDS011;10791;53.108;18.326;2022-11-14T19:03:46;64.00;;;33.03;;
21266;SDS011;10791;53.108;18.326;2022-11-14T19:08:57;79.13;;;35.63;;
21266;SDS011;10791;53.108;18.326;2022-11-14T19:14:08;69.83;;;35.40;;
21266;SDS011;10791;53.108;18.326;2022-11-14T19:19:15;65.53;;;33.03;;
21266;SDS011;10791;53.108;18.326;2022-11-14T19:24:20;69.83;;;35.80;;
21266;SDS011;10791;53.108;18.326;2022-11-14T19:29:26;75.13;;;37.73;;
21266;SDS011;10791;53.108;18.326;2022-11-14T19:34:33;76.13;;;34.00;;
21266;SDS011;10791;53.108;18.326;2022-11-14T19:39:39;76.30;;;36.77;;
21266;SDS011;10791;53.108;18.326;2022-11-14T19:44:50;64.77;;;33.50;;
21266;SDS011;10791;53.108;18.326;2022-11-14T19:50:00;76.07;;;35.97;;
21266;SDS011;10791;53.108;18.326;2022-11-14T19:55:04;79.37;;;35.57;;
21266;SDS011;10791;53.108;18.326;2022-11-14T20:00:09;71.90;;;35.77;;
21266;SDS011;10791;53.108;18.326;2022-11-14T20:05:14;70.30;;;33.87;;
21266;SDS011;10791;53.108;18.326;2022-11-14T20:10:20;72.50;;;33.37;;
21266;SDS011;10791;53.108;18.326;2022-11-14T20:15:28;72.70;;;31.90;;
21266;SDS011;10791;53.108;18.326;2022-11-14T20:20:33;71.83;;;33.63;;
21266;SDS011;10791;53.108;18.326;2022-11-14T20:25:37;67.67;;;34.10;;
21266;SDS011;10791;53.108;18.326;2022-11-14T20:30:45;79.87;;;35.67;;
21266;SDS011;10791;53.108;18.326;2022-11-14T20:35:52;68.90;;;32.73;;
21266;SDS011;10791;53.108;18.326;2022-11-14T20:40:57;72.00;;;34.67;;
21266;SDS011;10791;53.108;18.326;2022-11-14T20:46:06;70.73;;;33.30;;
21266;SDS011;10791;53.108;18.326;2022-11-14T20:51:21;79.37;;;34.73;;
21266;SDS011;10791;53.108;18.326;2022-11-14T20:56:27;69.77;;;32.67;;
21266;SDS011;10791;53.108;18.326;2022-11-14T21:01:31;78.30;;;32.57;;
21266;SDS011;10791;53.108;18.326;2022-11-14T21:06:46;65.23;;;31.60;;
21266;SDS011;10791;53.108;18.326;2022-11-14T21:11:53;66.43;;;31.07;;
21266;SDS011;10791;53.108;18.326;2022-11-14T21:16:57;66.70;;;32.80;;
21266;SDS011;10791;53.108;18.326;2022-11-14T21:22:01;67.57;;;30.60;;
21266;SDS011;10791;53.108;18.326;2022-11-14T21:27:06;62.67;;;30.47;;
21266;SDS011;10791;53.108;18.326;2022-11-14T21:32:13;67.97;;;29.47;;
21266;SDS011;10791;53.108;18.326;2022-11-14T21:37:16;61.80;;;27.90;;
21266;SDS011;10791;53.108;18.326;2022-11-14T21:42:19;68.40;;;29.50;;
21266;SDS011;10791;53.108;18.326;2022-11-14T21:47:23;57.53;;;28.63;;
21266;SDS011;10791;53.108;18.326;2022-11-14T21:52:26;59.83;;;27.93;;
21266;SDS011;10791;53.108;18.326;2022-11-14T21:57:31;61.50;;;29.07;;
21266;SDS011;10791;53.108;18.326;2022-11-14T22:02:34;64.77;;;28.63;;
21266;SDS011;10791;53.108;18.326;2022-11-14T22:07:58;57.67;;;27.97;;
21266;SDS011;10791;53.108;18.326;2022-11-14T22:13:02;61.57;;;28.27;;
21266;SDS011;10791;53.108;18.326;2022-11-14T22:18:06;69.27;;;29.30;;
21266;SDS011;10791;53.108;18.326;2022-11-14T22:23:10;58.90;;;27.77;;
21266;SDS011;10791;53.108;18.326;2022-11-14T22:28:13;60.40;;;28.77;;
21266;SDS011;10791;53.108;18.326;2022-11-14T22:33:16;59.00;;;27.77;;
21266;SDS011;10791;53.108;18.326;2022-11-14T22:38:20;62.33;;;29.67;;
21266;SDS011;10791;53.108;18.326;2022-11-14T22:43:24;56.83;;;29.33;;
21266;SDS011;10791;53.108;18.326;2022-11-14T22:48:30;59.93;;;29.23;;
21266;SDS011;10791;53.108;18.326;2022-11-14T22:53:35;58.97;;;28.40;;
21266;SDS011;10791;53.108;18.326;2022-11-14T22:58:42;62.13;;;29.23;;
21266;SDS011;10791;53.108;18.326;2022-11-14T23:03:46;65.57;;;29.40;;
21266;SDS011;10791;53.108;18.326;2022-11-14T23:08:50;64.80;;;30.27;;
21266;SDS011;10791;53.108;18.326;2022-11-14T23:13:54;65.20;;;29.80;;
21266;SDS011;10791;53.108;18.326;2022-11-14T23:19:00;59.93;;;28.07;;
21266;SDS011;10791;53.108;18.326;2022-11-14T23:24:05;69.53;;;31.23;;
21266;SDS011;10791;53.108;18.326;2022-11-14T23:29:13;57.63;;;27.07;;
21266;SDS011;10791;53.108;18.326;2022-11-14T23:34:16;67.67;;;31.23;;
21266;SDS011;10791;53.108;18.326;2022-11-14T23:39:19;64.13;;;30.63;;
21266;SDS011;10791;53.108;18.326;2022-11-14T23:44:22;69.23;;;31.00;;
21266;SDS011;10791;53.108;18.326;2022-11-14T23:49:26;66.50;;;31.23;;
21266;SDS011;10791;53.108;18.326;2022-11-14T23:54:29;60.87;;;28.47;;
21266;SDS011;10791;53.108;18.326;2022-11-14T23:59:33;67.73;;;29.63;;
